Aviation Digital Data Service (ADDS)

Output produced by METARs form (1950 UTC 14 August 2018)
found at http://www.aviationweather.gov/adds/metars/
 
KDUJ 141906Z AUTO 25008KT 10SM BKN010 BKN015 21/19 A2999 RMK AO2 CIG 007V014 T02060189
KDUJ 141853Z AUTO 26008KT 10SM SCT008 BKN015 21/19 A2999 RMK AO2 SLP147 T02060189
KDUJ 141844Z AUTO 27010KT 10SM SCT010 OVC015 21/19 A2999 RMK AO2 T02060189
KDUJ 141836Z AUTO 26008KT 10SM FEW008 BKN012 BKN018 20/19 A3000 RMK AO2 T02000189
KDUJ 141753Z AUTO 26009KT 7SM BKN006 OVC010 19/19 A3000 RMK AO2 RAB10E21 SLP149 P0001 60005 T01940189 10194 20172 58004
KDUJ 141705Z AUTO 26007KT 7SM BKN006 OVC090 19/18 A3000 RMK AO2 CIG 003V023 T01890183
KDUJ 141653Z AUTO 26006KT 5SM BR SCT005 BKN080 OVC095 19/18 A3001 RMK AO2 RAB01E10 SLP153 P0001 T01890183
KDUJ 141627Z AUTO 27006KT 6SM BR SCT005 BKN075 OVC090 18/18 A3001 RMK AO2 RAB01E10 P0001 T01830178
KDUJ 141553Z AUTO 26005KT 10SM BKN006 BKN042 OVC070 18/18 A3001 RMK AO2 RAB07E48 CIG 004V010 SLP155 P0002 T01830178
KDUJ 141551Z AUTO 26007KT 9SM BKN006 BKN042 OVC065 18/18 A3001 RMK AO2 RAB07E48 P0002
KDUJ 141534Z AUTO 27005KT 4SM -RA BR SCT007 SCT011 OVC065 18/17 A3001 RMK AO2 RAB07 P0002 T01780172
KDUJ 141521Z AUTO 29005KT 3SM -RA BR BKN009 BKN039 OVC055 18/17 A3001 RMK AO2 RAB07 P0001 T01780172
KDUJ 141515Z AUTO 28005KT 2SM -RA BR FEW006 BKN014 OVC060 18/17 A3001 RMK AO2 VIS 1 1/2V5 RAB07 P0001 T01780172
KDUJ 141504Z AUTO 28007KT 6SM BR FEW008 BKN019 OVC048 18/17 A3001 RMK AO2 T01780172
KDUJ 141453Z AUTO 28006KT 9SM FEW013 BKN022 OVC046 18/17 A3001 RMK AO2 RAB17E32 SLP154 P0000 60001 T01780172 53005
KDUJ 141425Z AUTO 29006KT 3SM -RA BR FEW007 BKN029 OVC040 18/18 A3001 RMK AO2 RAB17 P0000 T01830178
KDUJ 141353Z AUTO 28004KT 10SM SCT040 BKN048 OVC075 18/18 A3000 RMK AO2 SLP151 T01830178
KDUJ 141315Z AUTO 26006KT 10SM SCT006 OVC036 18/17 A3000 RMK AO2 T01780172
KDUJ 141253Z AUTO 28005KT 9SM BKN005 OVC038 18/18 A2999 RMK AO2 RAE08 CIG 003V009 SLP149 P0001 T01780178
KDUJ 141225Z AUTO 27003KT 9SM BKN005 BKN011 OVC033 17/17 A2999 RMK AO2 RAE08 CIG 003V007 P0001 T01720172
KDUJ 141153Z AUTO 29005KT 4SM -RA BR FEW007 BKN022 OVC075 17/17 A2999 RMK AO2 RAB1059 SLP149 P0009 60009 70033 T01720167 10172 20167 50004
KDUJ 141151Z AUTO 29004KT 5SM -RA BR FEW009 BKN022 OVC075 17/17 A2999 RMK AO2 RAB1059 P0009
KDUJ 141134Z AUTO 30004KT 3SM -RA BR FEW016 BKN055 OVC070 17/17 A2999 RMK AO2 RAB1059 P0009 T01720167
KDUJ 141116Z AUTO 30003KT 1 1/4SM -RA BR SCT005 BKN036 OVC047 17/17 A2999 RMK AO2 RAB1059 P0007 T01720167
KDUJ 141108Z AUTO 33005KT 1 1/4SM RA BR BKN005 BKN042 OVC050 17/17 A2999 RMK AO2 RAB1059 P0004 T01720167
KDUJ 141100Z AUTO 30004KT 2 1/2SM -RA BR BKN005 OVC055 17/17 A2999 RMK AO2 RAB1059 P0001 T01720167
KDUJ 141053Z AUTO 28005KT 6SM BR BKN003 OVC008 17/17 A2999 RMK AO2 CIG 003V006 SLP147 T01720167
KDUJ 140953Z AUTO 26005KT 3SM BR BKN002 OVC006 17/17 A2998 RMK AO2 SLP145 T01670167
KDUJ 140905Z AUTO 28004KT 3SM BR OVC002 17/17 A2998 RMK AO2 T01670167
KDUJ 140853Z AUTO 28005KT 2 1/2SM BR OVC002 17/17 A2998 RMK AO2 SLP143 T01720172 56002
KDUJ 140838Z AUTO 27006KT 2 1/2SM BR OVC002 17/17 A2998 RMK AO2 T01720172
KDUJ 140816Z AUTO 30005KT 1 1/4SM BR OVC002 17/17 A2998 RMK AO2 T01720172
KDUJ 140800Z AUTO 27004KT 3/4SM BR OVC002 17/17 A2998 RMK AO2 T01720172
KDUJ 140753Z AUTO 27006KT 1SM BR OVC002 17/17 A2998 RMK AO2 SLPNO T01720172
KDUJ 140748Z AUTO 27005KT 1SM BR OVC002 17/17 A2999 RMK AO2
KDUJ 140738Z AUTO 27006KT 2SM BR OVC002 17/17 A2999 RMK AO2 T01720172
KDUJ 140653Z AUTO 29004KT 7SM BKN002 OVC012 17/17 A2999 RMK AO2 SLP147 T01720172
KDUJ 140642Z AUTO 31004KT 5SM BR OVC002 17/17 A3000 RMK AO2 T01720172
KDUJ 140634Z AUTO 32005KT 2SM BR OVC002 17/17 A3000 RMK AO2 T01720172
KDUJ 140627Z AUTO 33004KT 3/4SM BR VV002 17/17 A3000 RMK AO2 T01720172
KDUJ 140553Z AUTO 26008KT 1/4SM FG VV002 17/17 A3000 RMK AO2 SLP147 T01720172 10183 20172 58004
KDUJ 140453Z AUTO 26005KT 1/4SM FG VV002 18/18 A3002 RMK AO2 SLP153 T01780178 402500167
KDUJ 140410Z AUTO 25003KT 1/4SM FG VV003 17/17 A3002 RMK AO2 T01720172
KDUJ 140353Z AUTO 26003KT 1/2SM FG VV003 17/17 A3001 RMK AO2 SLP153 T01720172
KDUJ 140253Z AUTO 26004KT 1/4SM FG VV002 17/17 A3001 RMK AO2 SLP151 T01720172 58001
KDUJ 140212Z AUTO 26004KT 1/4SM FG VV002 17/17 A3001 RMK AO2 T01720172
KDUJ 140153Z AUTO 24003KT 1/4SM FG VV001 17/17 A3002 RMK AO2 SLP157 T01720172
KDUJ 140116Z AUTO 23003KT 1/4SM FG VV002 17/17 A3002 RMK AO2 T01720172
KDUJ 140051Z AUTO 00000KT 1/2SM FG VV002 18/18 A3001 RMK AO2 SLP154 T01780178
KDUJ 140050Z AUTO 00000KT 1/2SM FG VV002 18/18 A3001 RMK AO2
KDUJ 140042Z AUTO 00000KT 1 1/2SM BR SCT005 SCT065 18/18 A3002 RMK AO2 T01780178
KDUJ 140038Z AUTO 00000KT 5SM BR SCT005 18/18 A3002 RMK AO2 T01780178
KDUJ 140001Z AUTO 00000KT 10SM BKN005 18/18 A3001 RMK AO2 T01830178
KDUJ 132353Z AUTO 00000KT 9SM BKN004 18/18 A3001 RMK AO2 CIG 003V007 SLP154 60024 T01830178 10250 20183 55003
KDUJ 132314Z AUTO 34003KT 10SM BKN004 19/18 A3001 RMK AO2 T01890183
KDUJ 132253Z AUTO 00000KT 10SM BKN006 BKN044 BKN110 19/18 A3001 RMK AO2 RAE01 SLP154 P0000 T01890183
KDUJ 132233Z AUTO 04004KT 10SM FEW008 BKN095 OVC110 19/18 A3001 RMK AO2 RAE01 P0000 T01890183
KDUJ 132153Z AUTO 04004KT 10SM -RA OVC100 19/18 A3002 RMK AO2 LTG DSNT E SLP158 P0008 T01890183
KDUJ 132113Z AUTO 05005KT 4SM -RA BR SCT070 OVC095 19/18 A3003 RMK AO2 LTG DSNT NE AND S P0002 T01890183
KDUJ 132053Z AUTO 16004KT 6SM VCTS -RA BR BKN070 OVC090 19/18 A3004 RMK AO2 LTG DSNT NE AND S RAB19 TSB1954E10B22E37 SLP163 P0001 60016 T01890183
KDUJ 132037Z AUTO 03005KT 5SM VCTS -RA BR SCT015 SCT070 OVC090 19/18 A3004 RMK AO2 LTG DSNT NE AND S RAB19 TSB1954E10B22E37 P0001 T01940183
KDUJ 132022Z AUTO 04009KT 7SM -TSRA BKN015 BKN020 OVC100 19/18 A3004 RMK AO2 LTG DSNT NE AND S RAB19 TSB1954E10B22 P0000 T01940178
KDUJ 132016Z AUTO 03010KT 10SM VCTS 21/18 A3003 RMK AO2 LTG DSNT NE AND S TSB1954E10 T02060178
KDUJ 131954Z AUTO 34006KT TS RMK AO2 LTG DSNT ALQDS TSB54 $